sensor_id;sensor_type;location;lat;lon;timestamp;P1;durP1;ratioP1;P2;durP2;ratioP2
10059;SDS011;5069;49.306;8.636;2023-04-15T00:02:22;7.80;;;3.83;;
10059;SDS011;5069;49.306;8.636;2023-04-15T00:05:24;7.67;;;3.80;;
10059;SDS011;5069;49.306;8.636;2023-04-15T00:08:27;7.10;;;3.10;;
10059;SDS011;5069;49.306;8.636;2023-04-15T00:11:30;5.93;;;3.43;;
10059;SDS011;5069;49.306;8.636;2023-04-15T00:14:33;5.43;;;3.30;;
10059;SDS011;5069;49.306;8.636;2023-04-15T00:17:36;6.43;;;3.20;;
10059;SDS011;5069;49.306;8.636;2023-04-15T00:20:40;6.03;;;3.00;;
10059;SDS011;5069;49.306;8.636;2023-04-15T00:24:04;5.10;;;2.80;;
10059;SDS011;5069;49.306;8.636;2023-04-15T00:27:05;5.50;;;2.50;;
10059;SDS011;5069;49.306;8.636;2023-04-15T00:30:07;6.50;;;2.87;;
10059;SDS011;5069;49.306;8.636;2023-04-15T00:33:09;5.47;;;2.90;;
10059;SDS011;5069;49.306;8.636;2023-04-15T00:36:11;5.90;;;3.17;;
10059;SDS011;5069;49.306;8.636;2023-04-15T00:39:13;6.27;;;4.03;;
10059;SDS011;5069;49.306;8.636;2023-04-15T00:42:17;6.40;;;3.63;;
10059;SDS011;5069;49.306;8.636;2023-04-15T00:45:19;7.10;;;3.80;;
10059;SDS011;5069;49.306;8.636;2023-04-15T00:48:21;6.57;;;3.77;;
10059;SDS011;5069;49.306;8.636;2023-04-15T00:51:24;4.67;;;3.27;;
10059;SDS011;5069;49.306;8.636;2023-04-15T00:54:26;8.73;;;3.80;;
10059;SDS011;5069;49.306;8.636;2023-04-15T00:57:28;6.90;;;3.80;;
10059;SDS011;5069;49.306;8.636;2023-04-15T01:00:31;7.00;;;3.27;;
10059;SDS011;5069;49.306;8.636;2023-04-15T01:03:33;6.00;;;3.90;;
10059;SDS011;5069;49.306;8.636;2023-04-15T01:06:34;3.73;;;2.50;;
10059;SDS011;5069;49.306;8.636;2023-04-15T01:09:37;5.03;;;3.00;;
10059;SDS011;5069;49.306;8.636;2023-04-15T01:12:39;4.33;;;2.83;;
10059;SDS011;5069;49.306;8.636;2023-04-15T01:15:41;4.57;;;3.23;;
10059;SDS011;5069;49.306;8.636;2023-04-15T01:18:43;5.00;;;3.20;;
10059;SDS011;5069;49.306;8.636;2023-04-15T01:22:07;4.00;;;2.87;;
10059;SDS011;5069;49.306;8.636;2023-04-15T01:25:13;5.33;;;3.00;;
10059;SDS011;5069;49.306;8.636;2023-04-15T01:28:19;5.70;;;3.50;;
10059;SDS011;5069;49.306;8.636;2023-04-15T01:31:21;5.90;;;3.47;;
10059;SDS011;5069;49.306;8.636;2023-04-15T01:34:23;5.70;;;3.20;;
10059;SDS011;5069;49.306;8.636;2023-04-15T01:37:27;5.37;;;3.23;;
10059;SDS011;5069;49.306;8.636;2023-04-15T01:40:30;6.17;;;3.50;;
10059;SDS011;5069;49.306;8.636;2023-04-15T01:43:33;4.90;;;3.27;;
10059;SDS011;5069;49.306;8.636;2023-04-15T01:46:36;4.50;;;3.30;;
10059;SDS011;5069;49.306;8.636;2023-04-15T01:49:38;5.33;;;2.90;;
10059;SDS011;5069;49.306;8.636;2023-04-15T01:52:40;4.50;;;2.83;;
10059;SDS011;5069;49.306;8.636;2023-04-15T01:55:42;5.40;;;3.43;;
10059;SDS011;5069;49.306;8.636;2023-04-15T01:58:48;7.40;;;2.83;;
10059;SDS011;5069;49.306;8.636;2023-04-15T02:01:50;4.07;;;2.90;;
10059;SDS011;5069;49.306;8.636;2023-04-15T02:04:53;4.47;;;2.97;;
10059;SDS011;5069;49.306;8.636;2023-04-15T02:07:55;6.27;;;2.90;;
10059;SDS011;5069;49.306;8.636;2023-04-15T02:10:57;4.50;;;2.60;;
10059;SDS011;5069;49.306;8.636;2023-04-15T02:13:59;4.57;;;2.77;;
10059;SDS011;5069;49.306;8.636;2023-04-15T02:17:01;3.33;;;2.70;;
10059;SDS011;5069;49.306;8.636;2023-04-15T02:20:07;6.03;;;2.87;;
10059;SDS011;5069;49.306;8.636;2023-04-15T02:23:12;3.73;;;2.87;;
10059;SDS011;5069;49.306;8.636;2023-04-15T02:26:17;5.67;;;3.13;;
10059;SDS011;5069;49.306;8.636;2023-04-15T02:29:19;4.53;;;2.90;;
10059;SDS011;5069;49.306;8.636;2023-04-15T02:32:21;4.47;;;2.93;;
10059;SDS011;5069;49.306;8.636;2023-04-15T02:35:27;9.77;;;3.63;;
10059;SDS011;5069;49.306;8.636;2023-04-15T02:38:31;3.70;;;3.17;;
10059;SDS011;5069;49.306;8.636;2023-04-15T02:41:32;6.80;;;3.37;;
10059;SDS011;5069;49.306;8.636;2023-04-15T02:44:36;5.57;;;2.90;;
10059;SDS011;5069;49.306;8.636;2023-04-15T02:47:39;6.97;;;2.93;;
10059;SDS011;5069;49.306;8.636;2023-04-15T02:50:42;4.93;;;3.33;;
10059;SDS011;5069;49.306;8.636;2023-04-15T02:53:47;3.57;;;3.00;;
10059;SDS011;5069;49.306;8.636;2023-04-15T02:56:50;4.77;;;3.10;;
10059;SDS011;5069;49.306;8.636;2023-04-15T02:59:56;5.43;;;3.13;;
10059;SDS011;5069;49.306;8.636;2023-04-15T03:03:02;4.10;;;2.90;;
10059;SDS011;5069;49.306;8.636;2023-04-15T03:06:05;4.47;;;2.87;;
10059;SDS011;5069;49.306;8.636;2023-04-15T03:09:07;8.07;;;3.00;;
10059;SDS011;5069;49.306;8.636;2023-04-15T03:12:10;5.63;;;3.00;;
10059;SDS011;5069;49.306;8.636;2023-04-15T03:15:12;4.63;;;2.63;;
10059;SDS011;5069;49.306;8.636;2023-04-15T03:18:18;6.73;;;2.77;;
10059;SDS011;5069;49.306;8.636;2023-04-15T03:21:22;5.00;;;2.57;;
10059;SDS011;5069;49.306;8.636;2023-04-15T03:24:45;3.77;;;2.50;;
10059;SDS011;5069;49.306;8.636;2023-04-15T03:27:47;4.47;;;2.87;;
10059;SDS011;5069;49.306;8.636;2023-04-15T03:30:50;5.87;;;3.53;;
10059;SDS011;5069;49.306;8.636;2023-04-15T03:33:54;6.70;;;3.43;;
10059;SDS011;5069;49.306;8.636;2023-04-15T03:36:57;4.13;;;2.90;;
10059;SDS011;5069;49.306;8.636;2023-04-15T03:39:59;5.93;;;2.90;;
10059;SDS011;5069;49.306;8.636;2023-04-15T03:43:00;6.83;;;3.00;;
10059;SDS011;5069;49.306;8.636;2023-04-15T03:46:02;6.83;;;2.97;;
10059;SDS011;5069;49.306;8.636;2023-04-15T03:49:05;6.73;;;2.87;;
10059;SDS011;5069;49.306;8.636;2023-04-15T03:52:07;4.37;;;2.93;;
10059;SDS011;5069;49.306;8.636;2023-04-15T03:55:09;7.27;;;2.90;;
10059;SDS011;5069;49.306;8.636;2023-04-15T03:58:13;5.20;;;2.53;;
10059;SDS011;5069;49.306;8.636;2023-04-15T04:01:15;5.63;;;2.90;;
10059;SDS011;5069;49.306;8.636;2023-04-15T04:04:17;4.70;;;2.70;;
10059;SDS011;5069;49.306;8.636;2023-04-15T04:07:20;6.83;;;2.80;;
10059;SDS011;5069;49.306;8.636;2023-04-15T04:10:25;4.80;;;3.10;;
10059;SDS011;5069;49.306;8.636;2023-04-15T04:13:27;6.73;;;3.13;;
10059;SDS011;5069;49.306;8.636;2023-04-15T04:16:29;4.43;;;2.80;;
10059;SDS011;5069;49.306;8.636;2023-04-15T04:19:32;5.30;;;2.97;;
10059;SDS011;5069;49.306;8.636;2023-04-15T04:22:37;3.87;;;2.67;;
10059;SDS011;5069;49.306;8.636;2023-04-15T04:25:42;6.00;;;3.33;;
10059;SDS011;5069;49.306;8.636;2023-04-15T04:28:44;4.73;;;2.77;;
10059;SDS011;5069;49.306;8.636;2023-04-15T04:31:46;4.40;;;2.53;;
10059;SDS011;5069;49.306;8.636;2023-04-15T04:34:49;5.47;;;2.63;;
10059;SDS011;5069;49.306;8.636;2023-04-15T04:37:51;4.53;;;2.93;;
10059;SDS011;5069;49.306;8.636;2023-04-15T04:40:52;5.73;;;2.93;;
10059;SDS011;5069;49.306;8.636;2023-04-15T04:43:54;5.33;;;3.37;;
10059;SDS011;5069;49.306;8.636;2023-04-15T04:46:56;3.80;;;2.67;;
10059;SDS011;5069;49.306;8.636;2023-04-15T04:49:58;4.70;;;2.70;;
10059;SDS011;5069;49.306;8.636;2023-04-15T04:53:00;4.43;;;2.57;;
10059;SDS011;5069;49.306;8.636;2023-04-15T04:56:02;4.30;;;3.00;;
10059;SDS011;5069;49.306;8.636;2023-04-15T04:59:04;3.27;;;2.60;;
10059;SDS011;5069;49.306;8.636;2023-04-15T05:02:07;5.77;;;2.80;;
10059;SDS011;5069;49.306;8.636;2023-04-15T05:05:09;3.50;;;2.90;;
10059;SDS011;5069;49.306;8.636;2023-04-15T05:08:12;3.80;;;2.67;;
10059;SDS011;5069;49.306;8.636;2023-04-15T05:11:13;5.10;;;3.07;;
10059;SDS011;5069;49.306;8.636;2023-04-15T05:14:37;4.77;;;2.83;;
10059;SDS011;5069;49.306;8.636;2023-04-15T05:17:40;4.37;;;3.00;;
10059;SDS011;5069;49.306;8.636;2023-04-15T05:20:42;3.77;;;2.80;;
10059;SDS011;5069;49.306;8.636;2023-04-15T05:23:44;3.60;;;2.93;;
10059;SDS011;5069;49.306;8.636;2023-04-15T05:26:45;4.10;;;3.13;;
10059;SDS011;5069;49.306;8.636;2023-04-15T05:29:47;5.47;;;3.30;;
10059;SDS011;5069;49.306;8.636;2023-04-15T05:32:49;6.00;;;3.53;;
10059;SDS011;5069;49.306;8.636;2023-04-15T05:35:51;5.37;;;3.93;;
10059;SDS011;5069;49.306;8.636;2023-04-15T05:38:53;10.33;;;4.53;;
10059;SDS011;5069;49.306;8.636;2023-04-15T05:41:55;4.83;;;3.70;;
10059;SDS011;5069;49.306;8.636;2023-04-15T05:44:58;5.27;;;4.03;;
10059;SDS011;5069;49.306;8.636;2023-04-15T05:48:03;6.63;;;4.07;;
10059;SDS011;5069;49.306;8.636;2023-04-15T05:51:05;7.97;;;3.80;;
10059;SDS011;5069;49.306;8.636;2023-04-15T05:54:07;6.03;;;3.60;;
10059;SDS011;5069;49.306;8.636;2023-04-15T05:57:09;7.17;;;4.00;;
10059;SDS011;5069;49.306;8.636;2023-04-15T06:00:11;6.10;;;4.03;;
10059;SDS011;5069;49.306;8.636;2023-04-15T06:03:13;5.40;;;3.57;;
10059;SDS011;5069;49.306;8.636;2023-04-15T06:06:16;5.83;;;3.70;;
10059;SDS011;5069;49.306;8.636;2023-04-15T06:09:18;7.90;;;4.63;;
10059;SDS011;5069;49.306;8.636;2023-04-15T06:12:22;10.97;;;4.63;;
10059;SDS011;5069;49.306;8.636;2023-04-15T06:15:24;8.03;;;4.27;;
10059;SDS011;5069;49.306;8.636;2023-04-15T06:18:26;6.73;;;4.13;;
10059;SDS011;5069;49.306;8.636;2023-04-15T06:21:28;7.47;;;4.40;;
10059;SDS011;5069;49.306;8.636;2023-04-15T06:24:30;5.90;;;4.40;;
10059;SDS011;5069;49.306;8.636;2023-04-15T06:27:33;8.53;;;5.10;;
10059;SDS011;5069;49.306;8.636;2023-04-15T06:30:35;7.97;;;5.13;;
10059;SDS011;5069;49.306;8.636;2023-04-15T06:33:36;6.87;;;4.77;;
10059;SDS011;5069;49.306;8.636;2023-04-15T06:36:38;9.00;;;5.07;;
10059;SDS011;5069;49.306;8.636;2023-04-15T06:39:39;8.03;;;4.23;;
10059;SDS011;5069;49.306;8.636;2023-04-15T06:42:41;4.90;;;4.10;;
10059;SDS011;5069;49.306;8.636;2023-04-15T06:45:43;5.67;;;4.27;;
10059;SDS011;5069;49.306;8.636;2023-04-15T06:48:45;7.67;;;4.53;;
10059;SDS011;5069;49.306;8.636;2023-04-15T06:51:47;6.50;;;4.27;;
10059;SDS011;5069;49.306;8.636;2023-04-15T06:54:49;8.30;;;4.50;;
10059;SDS011;5069;49.306;8.636;2023-04-15T06:57:51;5.77;;;4.67;;
10059;SDS011;5069;49.306;8.636;2023-04-15T07:00:53;8.87;;;5.40;;
10059;SDS011;5069;49.306;8.636;2023-04-15T07:03:55;10.03;;;4.70;;
10059;SDS011;5069;49.306;8.636;2023-04-15T07:06:57;8.50;;;5.50;;
10059;SDS011;5069;49.306;8.636;2023-04-15T07:10:03;8.03;;;5.17;;
10059;SDS011;5069;49.306;8.636;2023-04-15T07:13:06;7.23;;;5.10;;
10059;SDS011;5069;49.306;8.636;2023-04-15T07:16:09;8.73;;;5.00;;
10059;SDS011;5069;49.306;8.636;2023-04-15T07:19:10;7.13;;;4.60;;
10059;SDS011;5069;49.306;8.636;2023-04-15T07:22:12;8.87;;;5.03;;
10059;SDS011;5069;49.306;8.636;2023-04-15T07:25:14;8.00;;;4.67;;
10059;SDS011;5069;49.306;8.636;2023-04-15T07:28:16;7.27;;;4.37;;
10059;SDS011;5069;49.306;8.636;2023-04-15T07:31:18;7.07;;;4.77;;
10059;SDS011;5069;49.306;8.636;2023-04-15T07:34:19;7.30;;;4.23;;
10059;SDS011;5069;49.306;8.636;2023-04-15T07:37:21;6.97;;;4.57;;
10059;SDS011;5069;49.306;8.636;2023-04-15T07:40:23;7.97;;;4.67;;
10059;SDS011;5069;49.306;8.636;2023-04-15T07:43:25;8.67;;;4.47;;
10059;SDS011;5069;49.306;8.636;2023-04-15T07:46:27;6.13;;;4.47;;
10059;SDS011;5069;49.306;8.636;2023-04-15T07:49:29;4.87;;;4.23;;
10059;SDS011;5069;49.306;8.636;2023-04-15T07:52:32;7.07;;;4.30;;
10059;SDS011;5069;49.306;8.636;2023-04-15T07:55:39;6.33;;;4.23;;
10059;SDS011;5069;49.306;8.636;2023-04-15T07:58:41;5.17;;;3.97;;
10059;SDS011;5069;49.306;8.636;2023-04-15T08:01:43;7.57;;;4.40;;
10059;SDS011;5069;49.306;8.636;2023-04-15T08:04:46;8.23;;;4.47;;
10059;SDS011;5069;49.306;8.636;2023-04-15T08:07:49;6.47;;;4.10;;
10059;SDS011;5069;49.306;8.636;2023-04-15T08:10:51;8.43;;;4.63;;
10059;SDS011;5069;49.306;8.636;2023-04-15T08:13:53;6.33;;;4.67;;
10059;SDS011;5069;49.306;8.636;2023-04-15T08:16:55;6.67;;;4.90;;
10059;SDS011;5069;49.306;8.636;2023-04-15T08:19:56;6.90;;;4.67;;
10059;SDS011;5069;49.306;8.636;2023-04-15T08:22:58;7.60;;;4.30;;
10059;SDS011;5069;49.306;8.636;2023-04-15T08:26:00;8.77;;;4.30;;
10059;SDS011;5069;49.306;8.636;2023-04-15T08:29:02;6.00;;;3.90;;
10059;SDS011;5069;49.306;8.636;2023-04-15T08:32:05;6.20;;;3.83;;
10059;SDS011;5069;49.306;8.636;2023-04-15T08:35:07;6.77;;;4.20;;
10059;SDS011;5069;49.306;8.636;2023-04-15T08:38:09;7.30;;;4.27;;
10059;SDS011;5069;49.306;8.636;2023-04-15T08:41:55;8.67;;;3.80;;
10059;SDS011;5069;49.306;8.636;2023-04-15T08:45:00;5.03;;;3.50;;
10059;SDS011;5069;49.306;8.636;2023-04-15T08:48:05;6.93;;;3.53;;
10059;SDS011;5069;49.306;8.636;2023-04-15T08:51:10;5.67;;;3.57;;
10059;SDS011;5069;49.306;8.636;2023-04-15T08:54:16;6.53;;;3.73;;
10059;SDS011;5069;49.306;8.636;2023-04-15T08:57:19;7.20;;;4.30;;
10059;SDS011;5069;49.306;8.636;2023-04-15T09:00:21;5.77;;;3.53;;
10059;SDS011;5069;49.306;8.636;2023-04-15T09:03:24;8.83;;;3.70;;
10059;SDS011;5069;49.306;8.636;2023-04-15T09:06:27;7.27;;;3.83;;
10059;SDS011;5069;49.306;8.636;2023-04-15T09:09:29;5.40;;;3.57;;
10059;SDS011;5069;49.306;8.636;2023-04-15T09:12:33;6.97;;;4.17;;
10059;SDS011;5069;49.306;8.636;2023-04-15T09:15:37;10.70;;;3.73;;
10059;SDS011;5069;49.306;8.636;2023-04-15T09:18:42;8.50;;;4.57;;
10059;SDS011;5069;49.306;8.636;2023-04-15T09:21:46;9.17;;;4.37;;
10059;SDS011;5069;49.306;8.636;2023-04-15T09:24:48;6.70;;;4.00;;
10059;SDS011;5069;49.306;8.636;2023-04-15T09:27:50;8.43;;;4.07;;
10059;SDS011;5069;49.306;8.636;2023-04-15T09:30:56;7.80;;;4.50;;
10059;SDS011;5069;49.306;8.636;2023-04-15T09:34:02;8.43;;;4.00;;
10059;SDS011;5069;49.306;8.636;2023-04-15T09:37:04;8.60;;;4.10;;
10059;SDS011;5069;49.306;8.636;2023-04-15T09:40:08;6.73;;;4.00;;
10059;SDS011;5069;49.306;8.636;2023-04-15T09:43:10;5.73;;;4.07;;
10059;SDS011;5069;49.306;8.636;2023-04-15T09:46:14;8.27;;;4.70;;
10059;SDS011;5069;49.306;8.636;2023-04-15T09:49:15;6.20;;;3.60;;
10059;SDS011;5069;49.306;8.636;2023-04-15T09:52:40;6.50;;;3.27;;
10059;SDS011;5069;49.306;8.636;2023-04-15T09:55:45;5.13;;;3.70;;
10059;SDS011;5069;49.306;8.636;2023-04-15T09:58:54;7.30;;;3.23;;
10059;SDS011;5069;49.306;8.636;2023-04-15T10:01:57;4.07;;;2.80;;
10059;SDS011;5069;49.306;8.636;2023-04-15T10:05:00;5.77;;;3.30;;
10059;SDS011;5069;49.306;8.636;2023-04-15T10:08:03;4.83;;;2.53;;
10059;SDS011;5069;49.306;8.636;2023-04-15T10:11:05;4.70;;;2.40;;
10059;SDS011;5069;49.306;8.636;2023-04-15T10:14:08;5.00;;;2.67;;
10059;SDS011;5069;49.306;8.636;2023-04-15T10:17:11;5.13;;;2.57;;
10059;SDS011;5069;49.306;8.636;2023-04-15T10:20:17;4.47;;;2.70;;
10059;SDS011;5069;49.306;8.636;2023-04-15T10:23:21;5.53;;;2.97;;
10059;SDS011;5069;49.306;8.636;2023-04-15T10:26:23;4.30;;;3.10;;
10059;SDS011;5069;49.306;8.636;2023-04-15T10:29:25;5.60;;;3.23;;
10059;SDS011;5069;49.306;8.636;2023-04-15T10:32:30;4.53;;;3.00;;
10059;SDS011;5069;49.306;8.636;2023-04-15T10:35:32;5.80;;;3.27;;
10059;SDS011;5069;49.306;8.636;2023-04-15T10:38:41;5.73;;;4.03;;
10059;SDS011;5069;49.306;8.636;2023-04-15T10:41:47;8.40;;;4.20;;
10059;SDS011;5069;49.306;8.636;2023-04-15T10:45:14;7.70;;;4.60;;
10059;SDS011;5069;49.306;8.636;2023-04-15T10:48:17;4.67;;;4.23;;
10059;SDS011;5069;49.306;8.636;2023-04-15T10:51:27;7.17;;;5.30;;
10059;SDS011;5069;49.306;8.636;2023-04-15T10:54:31;10.47;;;5.40;;
10059;SDS011;5069;49.306;8.636;2023-04-15T10:57:36;5.30;;;4.50;;
10059;SDS011;5069;49.306;8.636;2023-04-15T11:00:39;7.17;;;4.87;;
10059;SDS011;5069;49.306;8.636;2023-04-15T11:03:41;7.30;;;5.20;;
10059;SDS011;5069;49.306;8.636;2023-04-15T11:06:44;6.27;;;4.67;;
10059;SDS011;5069;49.306;8.636;2023-04-15T11:09:46;5.63;;;4.90;;
10059;SDS011;5069;49.306;8.636;2023-04-15T11:13:01;6.53;;;4.70;;
10059;SDS011;5069;49.306;8.636;2023-04-15T11:16:04;7.33;;;4.23;;
10059;SDS011;5069;49.306;8.636;2023-04-15T11:19:06;4.87;;;4.33;;
10059;SDS011;5069;49.306;8.636;2023-04-15T11:22:08;4.73;;;2.90;;
10059;SDS011;5069;49.306;8.636;2023-04-15T11:25:16;5.70;;;2.60;;
10059;SDS011;5069;49.306;8.636;2023-04-15T11:28:26;4.33;;;2.43;;
10059;SDS011;5069;49.306;8.636;2023-04-15T11:31:28;2.73;;;2.00;;
10059;SDS011;5069;49.306;8.636;2023-04-15T11:34:52;3.07;;;2.30;;
10059;SDS011;5069;49.306;8.636;2023-04-15T11:37:54;4.93;;;2.10;;
10059;SDS011;5069;49.306;8.636;2023-04-15T11:40:56;4.77;;;2.10;;
10059;SDS011;5069;49.306;8.636;2023-04-15T11:43:58;2.77;;;1.80;;
10059;SDS011;5069;49.306;8.636;2023-04-15T11:47:20;3.40;;;1.83;;
10059;SDS011;5069;49.306;8.636;2023-04-15T11:50:25;2.50;;;1.57;;
10059;SDS011;5069;49.306;8.636;2023-04-15T11:53:43;2.70;;;1.47;;
10059;SDS011;5069;49.306;8.636;2023-04-15T11:56:50;5.97;;;1.60;;
10059;SDS011;5069;49.306;8.636;2023-04-15T11:59:54;2.83;;;1.97;;
10059;SDS011;5069;49.306;8.636;2023-04-15T12:06:41;3.37;;;1.60;;
10059;SDS011;5069;49.306;8.636;2023-04-15T12:09:43;5.33;;;1.87;;
10059;SDS011;5069;49.306;8.636;2023-04-15T12:12:55;2.20;;;1.60;;
10059;SDS011;5069;49.306;8.636;2023-04-15T12:15:57;3.00;;;1.77;;
10059;SDS011;5069;49.306;8.636;2023-04-15T12:18:59;2.67;;;1.60;;
10059;SDS011;5069;49.306;8.636;2023-04-15T12:22:08;2.37;;;1.50;;
10059;SDS011;5069;49.306;8.636;2023-04-15T12:25:33;2.37;;;1.50;;
10059;SDS011;5069;49.306;8.636;2023-04-15T12:28:35;3.33;;;1.63;;
10059;SDS011;5069;49.306;8.636;2023-04-15T12:31:47;2.10;;;1.70;;
10059;SDS011;5069;49.306;8.636;2023-04-15T12:34:52;5.03;;;2.30;;
10059;SDS011;5069;49.306;8.636;2023-04-15T12:37:54;4.50;;;2.30;;
10059;SDS011;5069;49.306;8.636;2023-04-15T12:40:57;2.80;;;1.90;;
10059;SDS011;5069;49.306;8.636;2023-04-15T12:43:59;2.97;;;1.83;;
10059;SDS011;5069;49.306;8.636;2023-04-15T12:47:02;4.53;;;2.10;;
10059;SDS011;5069;49.306;8.636;2023-04-15T12:50:26;4.17;;;1.90;;
10059;SDS011;5069;49.306;8.636;2023-04-15T12:53:28;3.33;;;2.00;;
10059;SDS011;5069;49.306;8.636;2023-04-15T12:56:30;2.93;;;1.87;;
10059;SDS011;5069;49.306;8.636;2023-04-15T12:59:32;2.13;;;1.57;;
10059;SDS011;5069;49.306;8.636;2023-04-15T13:02:34;3.53;;;1.80;;
10059;SDS011;5069;49.306;8.636;2023-04-15T13:05:38;3.00;;;1.80;;
10059;SDS011;5069;49.306;8.636;2023-04-15T13:08:40;3.27;;;2.10;;
10059;SDS011;5069;49.306;8.636;2023-04-15T13:11:55;2.77;;;1.77;;
10059;SDS011;5069;49.306;8.636;2023-04-15T13:14:58;5.30;;;2.00;;
10059;SDS011;5069;49.306;8.636;2023-04-15T13:17:59;2.60;;;1.70;;
10059;SDS011;5069;49.306;8.636;2023-04-15T13:21:02;3.07;;;1.87;;
10059;SDS011;5069;49.306;8.636;2023-04-15T13:24:08;2.63;;;1.80;;
10059;SDS011;5069;49.306;8.636;2023-04-15T13:27:10;3.87;;;1.60;;
10059;SDS011;5069;49.306;8.636;2023-04-15T13:30:36;3.60;;;1.70;;
10059;SDS011;5069;49.306;8.636;2023-04-15T13:33:38;4.13;;;1.73;;
10059;SDS011;5069;49.306;8.636;2023-04-15T13:37:05;2.83;;;1.53;;
10059;SDS011;5069;49.306;8.636;2023-04-15T13:40:08;2.63;;;1.53;;
10059;SDS011;5069;49.306;8.636;2023-04-15T13:43:14;0.97;;;0.87;;
10059;SDS011;5069;49.306;8.636;2023-04-15T13:46:16;1.67;;;0.90;;
10059;SDS011;5069;49.306;8.636;2023-04-15T13:49:18;3.53;;;0.80;;
10059;SDS011;5069;49.306;8.636;2023-04-15T13:52:20;2.70;;;1.20;;
10059;SDS011;5069;49.306;8.636;2023-04-15T13:55:22;2.47;;;1.50;;
10059;SDS011;5069;49.306;8.636;2023-04-15T13:58:27;1.00;;;0.90;;
10059;SDS011;5069;49.306;8.636;2023-04-15T14:01:29;1.20;;;0.90;;
10059;SDS011;5069;49.306;8.636;2023-04-15T14:04:31;1.40;;;0.90;;
10059;SDS011;5069;49.306;8.636;2023-04-15T14:07:33;2.50;;;1.00;;
10059;SDS011;5069;49.306;8.636;2023-04-15T14:10:35;1.13;;;0.90;;
10059;SDS011;5069;49.306;8.636;2023-04-15T14:13:38;3.37;;;1.47;;
10059;SDS011;5069;49.306;8.636;2023-04-15T14:16:40;4.90;;;1.40;;
10059;SDS011;5069;49.306;8.636;2023-04-15T14:19:41;2.80;;;1.37;;
10059;SDS011;5069;49.306;8.636;2023-04-15T14:22:43;1.97;;;1.20;;
10059;SDS011;5069;49.306;8.636;2023-04-15T14:26:07;4.37;;;1.33;;
10059;SDS011;5069;49.306;8.636;2023-04-15T14:29:09;4.00;;;1.20;;
10059;SDS011;5069;49.306;8.636;2023-04-15T14:32:11;1.73;;;1.00;;
10059;SDS011;5069;49.306;8.636;2023-04-15T14:35:15;2.87;;;0.97;;
10059;SDS011;5069;49.306;8.636;2023-04-15T14:38:17;1.90;;;1.13;;
10059;SDS011;5069;49.306;8.636;2023-04-15T14:41:19;1.40;;;1.00;;
10059;SDS011;5069;49.306;8.636;2023-04-15T14:44:22;1.30;;;1.20;;
10059;SDS011;5069;49.306;8.636;2023-04-15T14:47:42;1.70;;;1.07;;
10059;SDS011;5069;49.306;8.636;2023-04-15T14:50:44;1.30;;;1.20;;
10059;SDS011;5069;49.306;8.636;2023-04-15T14:53:46;3.33;;;1.70;;
10059;SDS011;5069;49.306;8.636;2023-04-15T14:56:49;2.50;;;2.03;;
10059;SDS011;5069;49.306;8.636;2023-04-15T14:59:51;2.07;;;1.60;;
10059;SDS011;5069;49.306;8.636;2023-04-15T15:02:59;2.10;;;1.70;;
10059;SDS011;5069;49.306;8.636;2023-04-15T15:06:02;3.03;;;1.80;;
10059;SDS011;5069;49.306;8.636;2023-04-15T15:09:04;1.63;;;1.53;;
10059;SDS011;5069;49.306;8.636;2023-04-15T15:12:06;1.60;;;1.50;;
10059;SDS011;5069;49.306;8.636;2023-04-15T15:15:08;1.53;;;1.43;;
10059;SDS011;5069;49.306;8.636;2023-04-15T15:18:29;3.00;;;1.80;;
10059;SDS011;5069;49.306;8.636;2023-04-15T15:21:31;2.53;;;1.33;;
10059;SDS011;5069;49.306;8.636;2023-04-15T15:24:32;1.80;;;1.40;;
10059;SDS011;5069;49.306;8.636;2023-04-15T15:27:34;1.37;;;1.27;;
10059;SDS011;5069;49.306;8.636;2023-04-15T15:30:38;2.90;;;1.10;;
10059;SDS011;5069;49.306;8.636;2023-04-15T15:33:40;1.40;;;1.30;;
10059;SDS011;5069;49.306;8.636;2023-04-15T15:37:03;2.20;;;1.27;;
10059;SDS011;5069;49.306;8.636;2023-04-15T15:40:06;5.57;;;1.40;;
10059;SDS011;5069;49.306;8.636;2023-04-15T15:43:08;2.17;;;1.20;;
10059;SDS011;5069;49.306;8.636;2023-04-15T15:46:10;1.53;;;1.43;;
10059;SDS011;5069;49.306;8.636;2023-04-15T15:49:12;1.50;;;1.40;;
10059;SDS011;5069;49.306;8.636;2023-04-15T15:52:14;1.73;;;1.20;;
10059;SDS011;5069;49.306;8.636;2023-04-15T15:55:17;1.40;;;1.30;;
10059;SDS011;5069;49.306;8.636;2023-04-15T15:58:19;3.37;;;1.30;;
10059;SDS011;5069;49.306;8.636;2023-04-15T16:01:21;2.37;;;1.83;;
10059;SDS011;5069;49.306;8.636;2023-04-15T16:04:23;1.67;;;1.30;;
10059;SDS011;5069;49.306;8.636;2023-04-15T16:07:26;1.40;;;1.30;;
10059;SDS011;5069;49.306;8.636;2023-04-15T16:10:27;1.60;;;1.50;;
10059;SDS011;5069;49.306;8.636;2023-04-15T16:13:29;1.60;;;1.50;;
10059;SDS011;5069;49.306;8.636;2023-04-15T16:16:31;1.67;;;1.40;;
10059;SDS011;5069;49.306;8.636;2023-04-15T16:19:33;3.00;;;1.70;;
10059;SDS011;5069;49.306;8.636;2023-04-15T16:22:35;1.90;;;1.80;;
10059;SDS011;5069;49.306;8.636;2023-04-15T16:25:37;2.63;;;1.97;;
10059;SDS011;5069;49.306;8.636;2023-04-15T16:28:39;2.73;;;2.47;;
10059;SDS011;5069;49.306;8.636;2023-04-15T16:31:41;1.80;;;1.70;;
10059;SDS011;5069;49.306;8.636;2023-04-15T16:34:43;2.33;;;2.13;;
10059;SDS011;5069;49.306;8.636;2023-04-15T16:37:45;2.27;;;2.07;;
10059;SDS011;5069;49.306;8.636;2023-04-15T16:40:47;2.33;;;1.83;;
10059;SDS011;5069;49.306;8.636;2023-04-15T16:43:51;3.20;;;1.70;;
10059;SDS011;5069;49.306;8.636;2023-04-15T16:46:53;2.27;;;1.90;;
10059;SDS011;5069;49.306;8.636;2023-04-15T16:49:55;1.97;;;1.63;;
10059;SDS011;5069;49.306;8.636;2023-04-15T16:52:56;1.80;;;1.70;;
10059;SDS011;5069;49.306;8.636;2023-04-15T16:55:58;1.87;;;1.77;;
10059;SDS011;5069;49.306;8.636;2023-04-15T16:59:00;2.70;;;2.30;;
10059;SDS011;5069;49.306;8.636;2023-04-15T17:02:03;2.50;;;2.20;;
10059;SDS011;5069;49.306;8.636;2023-04-15T17:05:05;2.47;;;2.27;;
10059;SDS011;5069;49.306;8.636;2023-04-15T17:08:07;2.33;;;1.60;;
10059;SDS011;5069;49.306;8.636;2023-04-15T17:11:09;2.20;;;2.00;;
10059;SDS011;5069;49.306;8.636;2023-04-15T17:14:12;2.50;;;1.73;;
10059;SDS011;5069;49.306;8.636;2023-04-15T17:17:14;1.57;;;1.47;;
10059;SDS011;5069;49.306;8.636;2023-04-15T17:20:17;2.47;;;1.90;;
10059;SDS011;5069;49.306;8.636;2023-04-15T17:23:19;3.27;;;2.17;;
10059;SDS011;5069;49.306;8.636;2023-04-15T17:26:20;2.37;;;2.03;;
10059;SDS011;5069;49.306;8.636;2023-04-15T17:29:22;2.30;;;2.10;;
10059;SDS011;5069;49.306;8.636;2023-04-15T17:32:25;3.03;;;2.10;;
10059;SDS011;5069;49.306;8.636;2023-04-15T17:35:32;2.70;;;2.50;;
10059;SDS011;5069;49.306;8.636;2023-04-15T17:38:34;2.90;;;2.70;;
10059;SDS011;5069;49.306;8.636;2023-04-15T17:41:36;2.77;;;2.57;;
10059;SDS011;5069;49.306;8.636;2023-04-15T17:44:38;2.90;;;2.70;;
10059;SDS011;5069;49.306;8.636;2023-04-15T17:47:40;3.13;;;2.83;;
10059;SDS011;5069;49.306;8.636;2023-04-15T17:51:04;4.03;;;3.20;;
10059;SDS011;5069;49.306;8.636;2023-04-15T17:54:06;3.73;;;3.20;;
10059;SDS011;5069;49.306;8.636;2023-04-15T17:57:08;3.20;;;2.90;;
10059;SDS011;5069;49.306;8.636;2023-04-15T18:00:10;2.90;;;2.70;;
10059;SDS011;5069;49.306;8.636;2023-04-15T18:03:12;3.87;;;3.00;;
10059;SDS011;5069;49.306;8.636;2023-04-15T18:06:15;3.10;;;2.80;;
10059;SDS011;5069;49.306;8.636;2023-04-15T18:09:17;3.80;;;3.50;;
10059;SDS011;5069;49.306;8.636;2023-04-15T18:12:19;3.30;;;3.00;;
10059;SDS011;5069;49.306;8.636;2023-04-15T18:15:20;4.30;;;3.90;;
10059;SDS011;5069;49.306;8.636;2023-04-15T18:18:25;6.00;;;4.27;;
10059;SDS011;5069;49.306;8.636;2023-04-15T18:21:28;4.30;;;3.63;;
10059;SDS011;5069;49.306;8.636;2023-04-15T18:24:30;3.90;;;3.50;;
10059;SDS011;5069;49.306;8.636;2023-04-15T18:27:32;4.00;;;3.70;;
10059;SDS011;5069;49.306;8.636;2023-04-15T18:30:37;5.90;;;3.40;;
10059;SDS011;5069;49.306;8.636;2023-04-15T18:33:39;3.83;;;3.53;;
10059;SDS011;5069;49.306;8.636;2023-04-15T18:36:41;3.80;;;3.40;;
10059;SDS011;5069;49.306;8.636;2023-04-15T18:39:43;3.60;;;3.30;;
10059;SDS011;5069;49.306;8.636;2023-04-15T18:42:45;3.63;;;3.30;;
10059;SDS011;5069;49.306;8.636;2023-04-15T18:45:46;3.60;;;3.30;;
10059;SDS011;5069;49.306;8.636;2023-04-15T18:48:48;4.10;;;3.37;;